Derby Field Lovelock US
ICAO: KLOL
IATA: LOL
Category: Medium
Scheduled Services: No

Elevation: 3904 ft
TransAlt. 18000 ft.

Airport Communications:
ASOS:120.675
OAKLAND CNTR:128.8
RENO RDO:122.4
CTAF/UNICOM:122.8

KLOL Zoom In..

Runways:

(A) RW 02 length 5529 ft width 75 ft
---- / hdg 16

(B) RW 08 length 4931 ft width 75 ft
---- / hdg 76

(C) RW 20 length 5529 ft width 75 ft
---- / hdg 196

(D) RW 26 length 4931 ft width 75 ft
---- / hdg 256

Location; KLOL
Day. 16 / Time. 17.53 Zulu
* Altimeter: 30.12
* Temperature: 30° c. 86°f.
* Wind from: 060° Speed 06 kn.
Dewpoint: 10° c.
Visibility: 10 Statute Miles.
Clouds: Clear (automated report).

KLOL 161753Z AUTO 06006KT 10SM CLR 30/10 A3012 RMK AO2 SLP150 T03000100 10300 20167 58006


Wind From 060°
Speed 06 kn.

 
 
jpsmedia.com for Web Design worldairports.se 2018   terms of use